createdAt,value
2017-10-22T00:02:35.168Z,22.40
2017-10-22T00:17:37.125Z,26.20
2017-10-22T00:32:34.504Z,28.50
2017-10-22T00:47:35.456Z,28.63
2017-10-22T01:02:34.407Z,26.83
2017-10-22T01:17:33.886Z,31.33
2017-10-22T01:32:34.333Z,29.90
2017-10-22T01:47:34.915Z,27.90
2017-10-22T02:02:34.259Z,25.30
2017-10-22T02:17:34.219Z,28.10
2017-10-22T02:32:35.095Z,26.23
2017-10-22T02:47:35.091Z,23.23
2017-10-22T03:02:35.067Z,25.27
2017-10-22T03:17:35.011Z,28.93
2017-10-22T03:32:34.456Z,26.43
2017-10-22T03:47:34.449Z,24.10
2017-10-22T04:02:34.817Z,23.20
2017-10-22T04:17:35.348Z,27.40
2017-10-22T04:32:34.675Z,26.93
2017-10-22T04:47:34.792Z,28.33
2017-10-22T05:02:34.660Z,28.67
2017-10-22T05:17:34.601Z,27.30
2017-10-22T05:32:35.036Z,30.80
2017-10-22T05:47:37.213Z,29.77
2017-10-22T06:02:37.178Z,28.77
2017-10-22T06:17:43.068Z,32.03
2017-10-22T06:32:35.336Z,30.90
2017-10-22T06:47:35.238Z,29.43
2017-10-22T07:02:35.285Z,34.90
2017-10-22T07:17:35.232Z,31.00
2017-10-22T07:32:36.661Z,33.30
2017-10-22T07:47:34.514Z,29.70
2017-10-22T08:02:34.537Z,27.50
2017-10-22T08:17:34.494Z,23.70
2017-10-22T08:32:34.860Z,20.80
2017-10-22T08:47:34.917Z,19.17
2017-10-22T09:02:34.387Z,15.80
2017-10-22T09:17:34.846Z,16.07
2017-10-22T09:32:35.259Z,13.53
2017-10-22T09:47:35.206Z,12.73
2017-10-22T10:02:35.154Z,14.07
2017-10-22T10:17:35.098Z,14.37
2017-10-22T10:32:36.554Z,13.57
2017-10-22T10:47:34.495Z,12.93
2017-10-22T11:02:34.501Z,11.97
2017-10-22T11:17:34.446Z,14.70
2017-10-22T11:32:34.857Z,13.53
2017-10-22T11:47:34.764Z,12.83
2017-10-22T12:02:36.286Z,14.07
2017-10-22T12:17:34.697Z,15.47
2017-10-22T12:32:35.191Z,15.17
2017-10-22T12:47:35.660Z,12.50
2017-10-22T13:02:37.109Z,13.00
2017-10-22T13:17:35.077Z,13.90
2017-10-22T13:32:34.427Z,15.90
2017-10-22T13:47:34.475Z,13.80
2017-10-22T14:02:34.378Z,13.03
2017-10-22T14:17:34.376Z,14.53
2017-10-22T14:32:34.901Z,13.00
2017-10-22T14:47:34.696Z,16.90
2017-10-22T15:02:34.657Z,15.30
2017-10-22T15:17:34.630Z,25.90
2017-10-22T15:32:35.122Z,31.57
2017-10-22T15:47:35.083Z,34.33
2017-10-22T16:02:37.013Z,22.63
2017-10-22T16:17:35.175Z,21.90
2017-10-22T16:32:36.415Z,22.40
2017-10-22T16:47:34.405Z,29.70
2017-10-22T17:02:36.592Z,27.03
2017-10-22T17:17:34.455Z,37.07
2017-10-22T17:32:35.850Z,35.40
2017-10-22T17:47:36.332Z,44.90
2017-10-22T18:02:35.243Z,38.60
2017-10-22T18:17:40.367Z,42.33
2017-10-22T18:32:35.107Z,50.63
2017-10-22T18:47:35.138Z,54.00
2017-10-22T19:02:37.165Z,40.80
2017-10-22T19:17:34.958Z,43.43
2017-10-22T19:32:34.371Z,39.00
2017-10-22T19:47:34.411Z,40.37
2017-10-22T20:02:34.349Z,39.27
2017-10-22T20:17:34.354Z,40.40
2017-10-22T20:32:34.717Z,37.03
2017-10-22T20:47:34.642Z,47.83
2017-10-22T21:02:37.058Z,41.33
2017-10-22T21:17:34.633Z,37.43
2017-10-22T21:32:35.033Z,34.93
2017-10-22T21:47:36.975Z,30.27
2017-10-22T22:02:36.410Z,29.73
2017-10-22T22:17:34.884Z,26.50
2017-10-22T22:32:35.162Z,34.03
2017-10-22T22:47:39.340Z,29.47
2017-10-22T23:02:34.776Z,30.63
2017-10-22T23:17:37.214Z,29.10
2017-10-22T23:32:34.607Z,32.03
2017-10-22T23:47:34.620Z,24.33
